createdAt,value
2018-10-11T00:00:22.808Z,25.40
2018-10-11T00:02:51.373Z,23.43
2018-10-11T00:05:19.990Z,25.73
2018-10-11T00:07:48.568Z,25.03
2018-10-11T00:10:17.162Z,21.90
2018-10-11T00:12:45.867Z,23.30
2018-10-11T00:15:14.424Z,19.57
2018-10-11T00:17:43.382Z,24.40
2018-10-11T00:20:11.927Z,21.23
2018-10-11T00:22:40.540Z,23.03
2018-10-11T00:25:09.178Z,23.23
2018-10-11T00:27:38.025Z,21.13
2018-10-11T00:30:06.903Z,21.57
2018-10-11T00:32:35.466Z,18.07
2018-10-11T00:35:04.490Z,20.77
2018-10-11T00:37:33.083Z,19.13
2018-10-11T00:40:01.675Z,21.10
2018-10-11T00:42:30.293Z,23.23
2018-10-11T00:44:59.547Z,22.70
2018-10-11T00:47:28.165Z,23.17
2018-10-11T00:49:56.742Z,23.40
2018-10-11T00:52:25.310Z,21.23
2018-10-11T00:54:53.923Z,23.47
2018-10-11T00:57:22.483Z,21.67
2018-10-11T00:59:51.067Z,24.00
2018-10-11T01:02:19.695Z,19.40
2018-10-11T01:04:48.278Z,18.37
2018-10-11T01:07:16.870Z,20.13
2018-10-11T01:09:45.830Z,19.93
2018-10-11T01:12:14.406Z,20.20
2018-10-11T01:14:42.968Z,20.80
2018-10-11T01:17:11.597Z,22.47
2018-10-11T01:19:40.237Z,23.50
2018-10-11T01:22:08.746Z,22.33
2018-10-11T01:24:37.223Z,22.33
2018-10-11T01:27:05.827Z,22.33
2018-10-11T01:29:34.632Z,22.50
2018-10-11T01:32:03.080Z,22.87
2018-10-11T01:34:31.572Z,22.67
2018-10-11T01:37:00.086Z,21.70
2018-10-11T01:39:28.595Z,21.37
2018-10-11T01:41:57.111Z,23.50
2018-10-11T01:44:25.622Z,20.17
2018-10-11T01:46:54.159Z,21.30
2018-10-11T01:49:22.638Z,19.47
2018-10-11T01:51:51.174Z,19.87
2018-10-11T01:54:19.677Z,19.40
2018-10-11T01:56:48.240Z,22.53
2018-10-11T01:59:16.666Z,22.30
2018-10-11T02:01:45.133Z,18.90
2018-10-11T02:04:13.891Z,21.67
2018-10-11T02:06:42.361Z,19.73
2018-10-11T02:09:10.886Z,19.77
2018-10-11T02:11:39.381Z,18.37
2018-10-11T02:14:08.079Z,21.87
2018-10-11T02:16:36.562Z,17.33
2018-10-11T02:19:05.097Z,21.13
2018-10-11T02:21:33.559Z,23.33
2018-10-11T02:24:02.106Z,21.77
2018-10-11T02:26:30.597Z,19.40
2018-10-11T02:28:59.095Z,23.47
2018-10-11T02:31:27.566Z,22.87
2018-10-11T02:33:56.111Z,20.63
2018-10-11T02:36:24.581Z,20.00
2018-10-11T02:38:53.371Z,18.63
2018-10-11T02:41:21.858Z,19.70
2018-10-11T02:43:50.353Z,22.50
2018-10-11T02:46:18.867Z,21.80
2018-10-11T02:48:47.358Z,19.67
2018-10-11T02:51:15.848Z,20.60
2018-10-11T02:53:44.381Z,18.67
2018-10-11T02:56:13.263Z,20.73
2018-10-11T02:58:53.044Z,21.53
2018-10-11T03:01:21.948Z,23.97
2018-10-11T03:03:53.540Z,19.83
2018-10-11T03:06:22.044Z,23.20
2018-10-11T03:08:50.648Z,20.93
2018-10-11T03:11:19.499Z,22.33
2018-10-11T03:13:47.996Z,23.37
2018-10-11T03:16:16.491Z,19.97
2018-10-11T03:18:44.967Z,20.17
2018-10-11T03:21:13.446Z,21.90
2018-10-11T03:23:41.941Z,21.40
2018-10-11T03:26:10.445Z,22.17
2018-10-11T03:28:38.907Z,19.10
2018-10-11T03:31:07.782Z,21.40
2018-10-11T03:33:36.267Z,23.67
2018-10-11T03:36:04.797Z,19.80
2018-10-11T03:38:33.335Z,19.67
2018-10-11T03:41:01.834Z,22.50
2018-10-11T03:43:30.314Z,22.77
2018-10-11T03:45:58.935Z,22.63
2018-10-11T03:48:27.427Z,22.00
2018-10-11T03:50:55.946Z,22.43
2018-10-11T03:53:24.420Z,23.47
2018-10-11T03:55:52.906Z,22.77
2018-10-11T03:58:21.366Z,23.30
2018-10-11T04:00:49.879Z,22.97
2018-10-11T04:03:18.402Z,21.27
2018-10-11T04:05:46.927Z,22.10
2018-10-11T04:08:15.427Z,25.10
2018-10-11T04:10:43.882Z,25.20
2018-10-11T04:13:12.529Z,23.83
2018-10-11T04:15:41.128Z,23.10
2018-10-11T04:18:09.506Z,22.00
2018-10-11T04:20:38.239Z,24.03
2018-10-11T04:23:06.769Z,26.90
2018-10-11T04:25:35.266Z,26.57
2018-10-11T04:28:03.752Z,21.63
2018-10-11T04:30:32.245Z,24.73
2018-10-11T04:33:00.721Z,23.20
2018-10-11T04:35:29.191Z,23.23
2018-10-11T04:37:57.678Z,18.50
2018-10-11T04:40:26.164Z,26.27
2018-10-11T04:42:54.763Z,28.40
2018-10-11T04:45:23.159Z,28.70
2018-10-11T04:47:51.633Z,27.50
2018-10-11T04:50:20.119Z,25.03
2018-10-11T04:52:48.612Z,26.30
2018-10-11T04:55:17.082Z,26.50
2018-10-11T04:57:45.575Z,24.23
2018-10-11T05:00:14.033Z,22.63
2018-10-11T05:02:42.658Z,23.33
2018-10-11T05:05:11.468Z,23.27
2018-10-11T05:07:40.229Z,26.13
2018-10-11T05:10:08.733Z,27.70
2018-10-11T05:12:37.473Z,26.27
2018-10-11T05:15:06.639Z,23.63
2018-10-11T05:17:35.215Z,26.67
2018-10-11T05:20:03.731Z,20.40
2018-10-11T05:22:32.223Z,25.80
2018-10-11T05:25:00.751Z,26.47
2018-10-11T05:27:29.508Z,25.70
2018-10-11T05:29:58.013Z,24.40
2018-10-11T05:32:26.630Z,26.77
2018-10-11T05:34:55.155Z,28.07
2018-10-11T05:37:23.633Z,22.77
2018-10-11T05:39:52.181Z,26.70
2018-10-11T05:42:20.738Z,21.77
2018-10-11T05:44:49.496Z,23.27
2018-10-11T05:47:18.057Z,23.10
2018-10-11T05:49:46.642Z,25.43
2018-10-11T05:52:15.428Z,27.10
2018-10-11T05:54:44.002Z,22.60
2018-10-11T05:57:12.596Z,25.10
2018-10-11T05:59:41.174Z,24.57
2018-10-11T06:02:09.740Z,25.77
2018-10-11T06:04:38.300Z,27.60
2018-10-11T06:07:06.914Z,23.87
2018-10-11T06:09:35.451Z,24.93
2018-10-11T06:12:03.978Z,19.97
2018-10-11T06:14:32.474Z,21.80
2018-10-11T06:17:01.116Z,25.20
2018-10-11T06:19:29.984Z,24.60
2018-10-11T06:21:58.547Z,23.63
2018-10-11T06:24:27.097Z,23.47
2018-10-11T06:26:55.632Z,25.60
2018-10-11T06:29:24.231Z,27.70
2018-10-11T06:31:52.879Z,27.67
2018-10-11T06:34:21.464Z,24.00
2018-10-11T06:36:50.065Z,24.67
2018-10-11T06:39:18.588Z,25.10
2018-10-11T06:41:47.233Z,25.50
2018-10-11T06:44:15.820Z,25.03
2018-10-11T06:46:44.621Z,28.97
2018-10-11T06:49:13.223Z,26.57
2018-10-11T06:51:41.900Z,28.93
2018-10-11T06:54:10.588Z,29.50
2018-10-11T06:56:39.122Z,27.40
2018-10-11T06:59:07.667Z,28.30
2018-10-11T07:01:36.442Z,28.23
2018-10-11T07:04:05.000Z,27.93
2018-10-11T07:06:33.534Z,25.67
2018-10-11T07:09:02.056Z,25.80
2018-10-11T07:11:30.913Z,28.00
2018-10-11T07:13:59.429Z,24.10
2018-10-11T07:16:28.256Z,27.67
2018-10-11T07:18:56.797Z,22.87
2018-10-11T07:21:25.347Z,26.43
2018-10-11T07:23:53.866Z,27.10
2018-10-11T07:26:22.370Z,26.97
2018-10-11T07:28:50.992Z,25.43
2018-10-11T07:31:19.497Z,25.00
2018-10-11T07:33:48.059Z,23.33
2018-10-11T07:36:16.557Z,23.80
2018-10-11T07:38:45.485Z,21.87
2018-10-11T07:41:14.011Z,21.67
2018-10-11T07:43:42.520Z,23.50
2018-10-11T07:46:11.031Z,22.47
2018-10-11T07:48:39.957Z,22.87
2018-10-11T07:51:08.495Z,21.27
2018-10-11T07:53:37.022Z,20.83
2018-10-11T07:56:05.563Z,20.90
2018-10-11T07:58:34.091Z,20.00
2018-10-11T08:01:02.649Z,19.60
2018-10-11T08:03:31.202Z,19.90
2018-10-11T08:05:59.743Z,19.70
2018-10-11T08:08:28.370Z,19.23
2018-10-11T08:10:56.865Z,19.77
2018-10-11T08:13:25.299Z,18.63
2018-10-11T08:15:53.869Z,17.37
2018-10-11T08:18:22.353Z,18.40
2018-10-11T08:20:50.919Z,17.53
2018-10-11T08:23:19.416Z,18.63
2018-10-11T08:25:48.352Z,17.83
2018-10-11T08:28:16.476Z,17.77
2018-10-11T08:30:44.988Z,18.30
2018-10-11T08:33:13.553Z,17.03
2018-10-11T08:35:42.055Z,17.83
2018-10-11T08:38:10.737Z,16.37
2018-10-11T08:40:39.120Z,17.27
2018-10-11T08:43:08.053Z,17.17
2018-10-11T08:45:36.572Z,16.57
2018-10-11T08:48:05.103Z,16.23
2018-10-11T08:50:33.634Z,16.63
2018-10-11T08:53:02.147Z,15.53
2018-10-11T08:55:30.732Z,14.60
2018-10-11T08:57:59.195Z,16.07
2018-10-11T09:00:27.713Z,14.97
2018-10-11T09:02:56.243Z,15.43
2018-10-11T09:05:24.772Z,13.83
2018-10-11T09:07:53.305Z,12.87
2018-10-11T09:10:21.833Z,14.47
2018-10-11T09:12:50.366Z,14.13
2018-10-11T09:15:18.891Z,13.43
2018-10-11T09:17:47.459Z,13.93
2018-10-11T09:20:15.989Z,12.50
2018-10-11T09:22:44.523Z,14.00
2018-10-11T09:25:13.067Z,14.10
2018-10-11T09:27:41.573Z,14.50
2018-10-11T09:30:10.148Z,14.07
2018-10-11T09:32:38.665Z,13.90
2018-10-11T09:35:07.636Z,13.63
2018-10-11T09:37:36.199Z,12.90
2018-10-11T09:40:04.779Z,12.40
2018-10-11T09:42:33.545Z,12.40
2018-10-11T09:45:02.061Z,12.90
2018-10-11T09:47:30.616Z,12.00
2018-10-11T09:49:59.148Z,12.57
2018-10-11T09:52:27.664Z,12.83
2018-10-11T09:54:56.239Z,11.53
2018-10-11T09:57:42.141Z,11.70
2018-10-11T10:00:16.837Z,11.43
2018-10-11T10:02:46.977Z,11.30
2018-10-11T10:05:15.531Z,11.50
2018-10-11T10:07:44.074Z,10.93
2018-10-11T10:10:12.638Z,10.67
2018-10-11T10:12:41.140Z,10.87
2018-10-11T10:15:09.712Z,11.03
2018-10-11T10:17:38.256Z,10.27
2018-10-11T10:20:06.828Z,11.17
2018-10-11T10:22:35.327Z,10.80
2018-10-11T10:25:03.915Z,10.10
2018-10-11T10:27:32.486Z,10.57
2018-10-11T10:30:02.812Z,11.70
2018-10-11T10:32:31.327Z,11.63
2018-10-11T10:34:59.818Z,11.23
2018-10-11T10:37:28.335Z,11.10
2018-10-11T10:39:56.877Z,10.30
2018-10-11T10:42:25.293Z,11.57
2018-10-11T10:44:53.814Z,10.60
2018-10-11T10:47:22.331Z,10.43
2018-10-11T10:49:50.835Z,10.20
2018-10-11T10:52:19.334Z,11.17
2018-10-11T10:54:47.828Z,10.67
2018-10-11T10:57:16.299Z,10.20
2018-10-11T10:59:44.810Z,10.90
2018-10-11T11:02:13.307Z,11.27
2018-10-11T11:04:41.811Z,11.10
2018-10-11T11:07:10.327Z,10.90
2018-10-11T11:09:39.173Z,10.97
2018-10-11T11:12:07.682Z,9.63
2018-10-11T11:14:36.163Z,10.33
2018-10-11T11:17:04.683Z,10.37
2018-10-11T11:19:33.249Z,10.43
2018-10-11T11:22:01.759Z,10.53
2018-10-11T11:24:30.245Z,9.93
2018-10-11T11:26:58.819Z,9.70
2018-10-11T11:29:27.323Z,10.23
2018-10-11T11:31:55.816Z,10.07
2018-10-11T11:34:24.311Z,10.30
2018-10-11T11:36:53.150Z,10.43
2018-10-11T11:39:21.887Z,9.93
2018-10-11T11:41:50.416Z,10.40
2018-10-11T11:44:18.953Z,10.37
2018-10-11T11:46:47.451Z,9.97
2018-10-11T11:49:15.975Z,9.23
2018-10-11T11:51:44.469Z,10.90
2018-10-11T11:54:15.954Z,9.20
2018-10-11T11:56:44.436Z,10.30
2018-10-11T11:59:12.975Z,9.90
2018-10-11T12:01:41.458Z,9.07
2018-10-11T12:04:10.211Z,9.87
2018-10-11T12:06:39.001Z,8.93
2018-10-11T12:09:11.468Z,8.50
2018-10-11T12:11:40.045Z,8.83
2018-10-11T12:14:09.030Z,9.97
2018-10-11T12:16:37.976Z,9.67
2018-10-11T12:19:07.319Z,9.53
2018-10-11T12:21:35.791Z,9.13
2018-10-11T12:24:04.323Z,9.60
2018-10-11T12:26:32.863Z,9.50
2018-10-11T12:29:01.452Z,9.63
2018-10-11T12:31:30.214Z,9.47
2018-10-11T12:33:58.702Z,8.97
2018-10-11T12:36:27.254Z,9.70
2018-10-11T12:38:56.561Z,9.67
2018-10-11T12:41:24.959Z,8.60
2018-10-11T12:43:53.484Z,9.00
2018-10-11T12:46:21.968Z,9.13
2018-10-11T12:48:50.453Z,9.73
2018-10-11T12:51:18.928Z,8.70
2018-10-11T12:53:48.530Z,9.63
2018-10-11T12:56:15.954Z,9.37
2018-10-11T12:58:44.474Z,7.67
2018-10-11T13:01:17.272Z,8.60
2018-10-11T13:03:41.655Z,8.53
2018-10-11T13:06:10.127Z,8.10
2018-10-11T13:08:38.616Z,8.83
2018-10-11T13:11:07.214Z,8.30
2018-10-11T13:13:35.699Z,8.87
2018-10-11T13:16:05.093Z,9.00
2018-10-11T13:18:32.808Z,8.17
2018-10-11T13:21:01.315Z,8.00
2018-10-11T13:23:29.775Z,8.20
2018-10-11T13:25:58.264Z,7.93
2018-10-11T13:28:26.755Z,8.07
2018-10-11T13:30:55.263Z,7.33
2018-10-11T13:33:23.724Z,7.47
2018-10-11T13:35:52.243Z,8.10
2018-10-11T13:38:20.708Z,7.43
2018-10-11T13:40:49.331Z,7.03
2018-10-11T13:43:17.679Z,7.77
2018-10-11T13:45:46.156Z,7.50
2018-10-11T13:48:14.620Z,7.00
2018-10-11T13:50:43.127Z,7.17
2018-10-11T13:53:15.422Z,6.70
2018-10-11T13:55:40.851Z,7.30
2018-10-11T13:58:08.924Z,7.10
2018-10-11T14:00:37.411Z,7.60
2018-10-11T14:03:05.968Z,7.83
2018-10-11T14:05:34.732Z,6.93
2018-10-11T14:08:03.215Z,7.17
2018-10-11T14:10:31.742Z,7.20
2018-10-11T14:13:00.206Z,6.50
2018-10-11T14:15:28.703Z,7.43
2018-10-11T14:17:59.969Z,6.97
2018-10-11T14:20:25.734Z,7.13
2018-10-11T14:22:54.223Z,7.30
2018-10-11T14:25:22.715Z,6.87
2018-10-11T14:27:51.181Z,6.23
2018-10-11T14:30:19.677Z,5.77
2018-10-11T14:32:48.187Z,7.03
2018-10-11T14:35:16.691Z,6.73
2018-10-11T14:37:45.176Z,7.63
2018-10-11T14:40:13.698Z,7.30
2018-10-11T14:42:42.428Z,6.53
2018-10-11T14:45:10.916Z,6.87
2018-10-11T14:47:39.414Z,7.57
2018-10-11T14:50:07.975Z,7.23
2018-10-11T14:52:36.440Z,7.27
2018-10-11T14:55:05.095Z,6.70
2018-10-11T14:57:33.835Z,7.67
2018-10-11T15:00:02.349Z,7.67
2018-10-11T15:02:30.844Z,6.40
2018-10-11T15:04:59.411Z,7.23
2018-10-11T15:07:27.896Z,7.43
2018-10-11T15:09:56.388Z,7.50
2018-10-11T15:12:24.899Z,7.97
2018-10-11T15:14:53.408Z,7.33
2018-10-11T15:17:21.915Z,6.77
2018-10-11T15:19:50.549Z,8.43
2018-10-11T15:22:18.900Z,7.60
2018-10-11T15:24:47.425Z,7.97
2018-10-11T15:27:15.908Z,7.17
2018-10-11T15:29:44.447Z,7.57
2018-10-11T15:32:12.926Z,8.37
2018-10-11T15:34:41.438Z,8.37
2018-10-11T15:37:09.927Z,7.77
2018-10-11T15:39:38.435Z,7.57
2018-10-11T15:42:07.307Z,7.23
2018-10-11T15:44:35.795Z,8.37
2018-10-11T15:47:04.287Z,8.30
2018-10-11T15:49:32.891Z,6.47
2018-10-11T15:52:01.414Z,8.87
2018-10-11T15:54:29.907Z,8.77
2018-10-11T15:56:58.411Z,8.13
2018-10-11T15:59:26.901Z,8.63
2018-10-11T16:01:55.413Z,7.77
2018-10-11T16:04:23.911Z,7.47
2018-10-11T16:06:52.392Z,8.57
2018-10-11T16:09:20.938Z,7.40
2018-10-11T16:11:49.441Z,7.00
2018-10-11T16:14:17.955Z,6.87
2018-10-11T16:16:46.487Z,8.77
2018-10-11T16:19:14.968Z,9.13
2018-10-11T16:21:43.467Z,9.30
2018-10-11T16:24:12.022Z,8.73
2018-10-11T16:26:40.520Z,6.93
2018-10-11T16:29:09.148Z,8.17
2018-10-11T16:31:37.679Z,9.93
2018-10-11T16:34:06.431Z,7.87
2018-10-11T16:36:35.196Z,5.33
2018-10-11T16:39:03.891Z,9.47
2018-10-11T16:41:32.376Z,12.30
2018-10-11T16:44:00.888Z,25.07
2018-10-11T16:46:29.390Z,26.37
2018-10-11T16:48:57.921Z,19.83
2018-10-11T16:51:26.415Z,29.80
2018-10-11T16:53:55.186Z,26.03
2018-10-11T16:56:23.704Z,28.63
2018-10-11T16:58:52.216Z,27.30
2018-10-11T17:01:20.752Z,23.83
2018-10-11T17:03:49.252Z,22.50
2018-10-11T17:06:17.844Z,22.73
2018-10-11T17:08:46.346Z,20.90
2018-10-11T17:11:14.899Z,19.10
2018-10-11T17:13:43.431Z,22.00
2018-10-11T17:16:11.959Z,35.90
2018-10-11T17:18:40.495Z,31.90
2018-10-11T17:21:09.205Z,24.37
2018-10-11T17:23:37.743Z,19.27
2018-10-11T17:26:06.528Z,14.13
2018-10-11T17:28:35.077Z,16.73
2018-10-11T17:31:03.578Z,15.47
2018-10-11T17:33:32.076Z,14.80
2018-10-11T17:36:00.568Z,12.57
2018-10-11T17:38:29.107Z,11.40
2018-10-11T17:40:57.592Z,12.57
2018-10-11T17:43:26.072Z,12.47
2018-10-11T17:45:54.550Z,12.70
2018-10-11T17:48:23.136Z,10.80
2018-10-11T17:50:51.952Z,10.03
2018-10-11T17:53:20.759Z,11.37
2018-10-11T17:55:49.271Z,11.60
2018-10-11T17:58:17.775Z,11.23
2018-10-11T18:00:46.292Z,9.53
2018-10-11T18:03:14.902Z,11.93
2018-10-11T18:05:43.364Z,9.57
2018-10-11T18:08:11.947Z,13.77
2018-10-11T18:10:40.463Z,11.00
2018-10-11T18:13:08.981Z,13.63
2018-10-11T18:15:37.492Z,15.10
2018-10-11T18:18:06.077Z,12.97
2018-10-11T18:20:34.902Z,12.50
2018-10-11T18:23:03.440Z,13.43
2018-10-11T18:25:31.967Z,15.77
2018-10-11T18:28:00.464Z,14.50
2018-10-11T18:30:29.255Z,16.40
2018-10-11T18:32:57.864Z,13.87
2018-10-11T18:35:26.369Z,13.30
2018-10-11T18:37:54.892Z,14.00
2018-10-11T18:40:23.435Z,15.43
2018-10-11T18:42:51.984Z,11.77
2018-10-11T18:45:20.523Z,13.40
2018-10-11T18:47:49.038Z,12.83
2018-10-11T18:50:17.597Z,12.70
2018-10-11T18:52:46.112Z,13.83
2018-10-11T18:55:14.639Z,12.50
2018-10-11T18:57:43.471Z,13.43
2018-10-11T19:00:11.988Z,13.73
2018-10-11T19:02:40.535Z,13.57
2018-10-11T19:05:09.071Z,12.80
2018-10-11T19:07:37.604Z,13.47
2018-10-11T19:10:06.140Z,13.30
2018-10-11T19:12:34.632Z,13.30
2018-10-11T19:15:03.148Z,10.27
2018-10-11T19:17:32.596Z,13.07
2018-10-11T19:20:01.116Z,12.37
2018-10-11T19:22:29.982Z,11.90
2018-10-11T19:24:58.519Z,11.90
2018-10-11T19:30:18.007Z,13.63
2018-10-11T19:32:46.614Z,12.93
2018-10-11T19:35:15.175Z,11.43
2018-10-11T19:37:43.781Z,12.30
2018-10-11T19:40:12.374Z,12.60
2018-10-11T19:42:40.970Z,10.60
2018-10-11T19:45:09.617Z,13.03
2018-10-11T19:47:38.226Z,13.00
2018-10-11T19:50:07.274Z,11.17
2018-10-11T19:52:36.149Z,12.73
2018-10-11T19:55:04.814Z,12.20
2018-10-11T19:57:33.415Z,12.93
2018-10-11T20:00:01.992Z,12.57
2018-10-11T20:02:30.574Z,11.97
2018-10-11T20:04:59.180Z,11.57
2018-10-11T20:07:28.131Z,10.93
2018-10-11T20:09:56.732Z,14.63
2018-10-11T20:12:25.318Z,16.10
2018-10-11T20:14:53.879Z,14.47
2018-10-11T20:17:22.507Z,14.73
2018-10-11T20:19:51.070Z,14.20
2018-10-11T20:22:19.674Z,13.70
2018-10-11T20:24:48.242Z,13.13
2018-10-11T20:27:16.895Z,12.30
2018-10-11T20:29:45.783Z,13.20
2018-10-11T20:32:14.358Z,10.53
2018-10-11T20:34:42.935Z,12.40
2018-10-11T20:37:11.531Z,12.33
2018-10-11T20:39:40.107Z,13.40
2018-10-11T20:42:08.890Z,13.17
2018-10-11T20:44:37.493Z,11.67
2018-10-11T20:47:06.418Z,13.83
2018-10-11T20:49:35.386Z,14.53
2018-10-11T20:52:04.010Z,11.73
2018-10-11T20:54:32.602Z,14.20
2018-10-11T20:57:01.430Z,13.17
2018-10-11T20:59:30.478Z,13.93
2018-10-11T21:01:59.117Z,14.87
2018-10-11T21:04:27.811Z,11.00
2018-10-11T21:06:56.416Z,12.73
2018-10-11T21:09:25.004Z,13.57
2018-10-11T21:11:53.602Z,15.17
2018-10-11T21:14:22.199Z,15.03
2018-10-11T21:16:50.793Z,15.77
2018-10-11T21:19:19.402Z,14.40
2018-10-11T21:21:48.297Z,11.43
2018-10-11T21:24:17.075Z,16.30
2018-10-11T21:26:45.698Z,15.73
2018-10-11T21:29:14.299Z,14.60
2018-10-11T21:31:43.234Z,13.73
2018-10-11T21:34:11.841Z,16.40
2018-10-11T21:36:40.436Z,16.17
2018-10-11T21:39:11.154Z,16.37
2018-10-11T21:41:39.954Z,15.97
2018-10-11T21:44:08.503Z,13.67
2018-10-11T21:46:37.131Z,15.47
2018-10-11T21:49:05.776Z,15.87
2018-10-11T21:51:34.398Z,16.27
2018-10-11T21:54:02.982Z,13.47
2018-10-11T21:56:31.605Z,14.37
2018-10-11T22:01:50.981Z,15.70
2018-10-11T22:04:19.473Z,14.77
2018-10-11T22:06:47.918Z,15.43
2018-10-11T22:09:16.365Z,15.90
2018-10-11T22:11:44.850Z,14.10
2018-10-11T22:14:13.330Z,14.63
2018-10-11T22:16:41.802Z,13.07
2018-10-11T22:19:10.241Z,14.47
2018-10-11T22:21:38.706Z,15.73
2018-10-11T22:24:07.217Z,15.60
2018-10-11T22:26:35.658Z,15.23
2018-10-11T22:29:04.128Z,18.23
2018-10-11T22:31:32.588Z,16.03
2018-10-11T22:34:01.083Z,15.67
2018-10-11T22:36:29.819Z,16.00
2018-10-11T22:38:58.268Z,14.77
2018-10-11T22:41:26.757Z,12.37
2018-10-11T22:43:55.493Z,14.97
2018-10-11T22:46:24.069Z,12.40
2018-10-11T22:48:52.553Z,14.47
2018-10-11T22:51:21.021Z,12.37
2018-10-11T22:53:49.513Z,15.67
2018-10-11T22:56:20.929Z,10.37
2018-10-11T22:58:50.131Z,14.37
2018-10-11T23:01:18.652Z,13.03
2018-10-11T23:03:47.140Z,15.57
2018-10-11T23:06:15.629Z,15.27
2018-10-11T23:08:44.085Z,12.07
2018-10-11T23:11:12.695Z,14.63
2018-10-11T23:13:41.576Z,14.43
2018-10-11T23:16:10.979Z,11.80
2018-10-11T23:18:40.648Z,16.23
2018-10-11T23:21:09.786Z,16.60
2018-10-11T23:23:39.034Z,10.17
2018-10-11T23:26:08.796Z,15.80
2018-10-11T23:28:40.424Z,16.13
2018-10-11T23:31:11.090Z,13.03
2018-10-11T23:33:47.704Z,16.23
2018-10-11T23:36:20.476Z,15.80
2018-10-11T23:39:02.128Z,13.73
2018-10-11T23:41:38.405Z,15.90
2018-10-11T23:44:08.478Z,15.40
2018-10-11T23:46:49.229Z,15.57
2018-10-11T23:52:11.225Z,13.37
2018-10-11T23:54:39.793Z,15.97
2018-10-11T23:57:08.582Z,15.57
2018-10-11T23:59:37.136Z,12.83
